Gerber, California
Current Conditions -  °F | °C
As of 1:54 AM on Saturday 29 Nov 2014 (Local Time) from KRBL Reporting Station
Light Rain Light Rain  
Wind Chill: 52°   Ceiling: 2200
Heat Index: 52°   Visibility: 8mi
Dew Point: 49°   Wind: 13mph
Humidity: 89%   Direction: 210°SSW
Pressure: 29.83"   Gusts: NA
Location:  40.06°N, 122.15°W
Report Text: KRBL 290954Z AUTO 21011KT 8SM -RA OVC022 11/09 A2983 RMK AO2 RAB52 SLP099 P0000 T01110094
Loading
Personal Weather Stations






























Interactive Weather Map New forecast layout! Learn more

10-Day Weather Forecast

Advertisements
Track Severe Weather on mobile